sensor_id;sensor_type;location;lat;lon;timestamp;P1;durP1;ratioP1;P2;durP2;ratioP2
30743;SDS011;17486;46.738;7.622;2023-05-10T00:01:27;0.63;;;0.30;;
30743;SDS011;17486;46.738;7.622;2023-05-10T00:03:52;0.45;;;0.22;;
30743;SDS011;17486;46.738;7.622;2023-05-10T00:06:18;1.60;;;0.40;;
30743;SDS011;17486;46.738;7.622;2023-05-10T00:08:44;0.47;;;0.30;;
30743;SDS011;17486;46.738;7.622;2023-05-10T00:11:10;0.57;;;0.40;;
30743;SDS011;17486;46.738;7.622;2023-05-10T00:13:35;0.68;;;0.30;;
30743;SDS011;17486;46.738;7.622;2023-05-10T00:16:01;1.38;;;0.93;;
30743;SDS011;17486;46.738;7.622;2023-05-10T00:18:26;0.88;;;0.55;;
30743;SDS011;17486;46.738;7.622;2023-05-10T00:20:51;1.80;;;0.80;;
30743;SDS011;17486;46.738;7.622;2023-05-10T00:23:17;2.63;;;1.05;;
30743;SDS011;17486;46.738;7.622;2023-05-10T00:25:42;0.98;;;0.68;;
30743;SDS011;17486;46.738;7.622;2023-05-10T00:28:08;1.20;;;0.68;;
30743;SDS011;17486;46.738;7.622;2023-05-10T00:30:33;1.35;;;0.60;;
30743;SDS011;17486;46.738;7.622;2023-05-10T00:32:58;0.88;;;0.73;;
30743;SDS011;17486;46.738;7.622;2023-05-10T00:35:24;1.08;;;0.55;;
30743;SDS011;17486;46.738;7.622;2023-05-10T00:37:49;0.63;;;0.25;;
30743;SDS011;17486;46.738;7.622;2023-05-10T00:40:14;2.63;;;0.52;;
30743;SDS011;17486;46.738;7.622;2023-05-10T00:42:40;0.50;;;0.38;;
30743;SDS011;17486;46.738;7.622;2023-05-10T00:45:05;0.80;;;0.50;;
30743;SDS011;17486;46.738;7.622;2023-05-10T00:47:31;0.20;;;0.20;;
30743;SDS011;17486;46.738;7.622;2023-05-10T00:49:58;0.30;;;0.30;;
30743;SDS011;17486;46.738;7.622;2023-05-10T00:52:25;2.28;;;0.47;;
30743;SDS011;17486;46.738;7.622;2023-05-10T00:54:51;0.88;;;0.38;;
30743;SDS011;17486;46.738;7.622;2023-05-10T00:57:18;0.50;;;0.40;;
30743;SDS011;17486;46.738;7.622;2023-05-10T00:59:43;0.30;;;0.30;;
30743;SDS011;17486;46.738;7.622;2023-05-10T01:02:09;1.42;;;0.25;;
30743;SDS011;17486;46.738;7.622;2023-05-10T01:04:34;0.63;;;0.38;;
30743;SDS011;17486;46.738;7.622;2023-05-10T01:07:00;0.30;;;0.30;;
30743;SDS011;17486;46.738;7.622;2023-05-10T01:09:26;3.00;;;0.32;;
30743;SDS011;17486;46.738;7.622;2023-05-10T01:11:52;1.55;;;0.32;;
30743;SDS011;17486;46.738;7.622;2023-05-10T01:14:18;0.20;;;0.20;;
30743;SDS011;17486;46.738;7.622;2023-05-10T01:16:45;0.25;;;0.22;;
30743;SDS011;17486;46.738;7.622;2023-05-10T01:21:53;1.42;;;0.45;;
30743;SDS011;17486;46.738;7.622;2023-05-10T01:38:59;1.10;;;0.30;;
30743;SDS011;17486;46.738;7.622;2023-05-10T01:44:18;1.17;;;0.25;;
30743;SDS011;17486;46.738;7.622;2023-05-10T01:46:55;0.20;;;0.20;;
30743;SDS011;17486;46.738;7.622;2023-05-10T01:49:31;0.30;;;0.20;;
30743;SDS011;17486;46.738;7.622;2023-05-10T01:52:00;0.30;;;0.30;;
30743;SDS011;17486;46.738;7.622;2023-05-10T01:54:38;1.38;;;0.30;;
30743;SDS011;17486;46.738;7.622;2023-05-10T01:57:09;0.22;;;0.20;;
30743;SDS011;17486;46.738;7.622;2023-05-10T01:59:38;1.30;;;0.20;;
30743;SDS011;17486;46.738;7.622;2023-05-10T02:02:07;0.20;;;0.20;;
30743;SDS011;17486;46.738;7.622;2023-05-10T02:04:37;1.27;;;0.50;;
30743;SDS011;17486;46.738;7.622;2023-05-10T02:07:04;0.65;;;0.40;;
30743;SDS011;17486;46.738;7.622;2023-05-10T02:09:31;1.38;;;0.47;;
30743;SDS011;17486;46.738;7.622;2023-05-10T02:11:59;0.93;;;0.57;;
30743;SDS011;17486;46.738;7.622;2023-05-10T02:14:27;0.82;;;0.55;;
30743;SDS011;17486;46.738;7.622;2023-05-10T02:16:54;1.60;;;0.70;;
30743;SDS011;17486;46.738;7.622;2023-05-10T02:19:21;1.88;;;1.00;;
30743;SDS011;17486;46.738;7.622;2023-05-10T02:21:48;1.73;;;0.88;;
30743;SDS011;17486;46.738;7.622;2023-05-10T02:24:16;2.33;;;0.90;;
30743;SDS011;17486;46.738;7.622;2023-05-10T02:26:43;1.27;;;1.02;;
30743;SDS011;17486;46.738;7.622;2023-05-10T02:29:10;3.10;;;1.05;;
30743;SDS011;17486;46.738;7.622;2023-05-10T02:31:37;1.88;;;0.90;;
30743;SDS011;17486;46.738;7.622;2023-05-10T02:34:04;2.95;;;0.98;;
30743;SDS011;17486;46.738;7.622;2023-05-10T02:36:32;3.17;;;0.70;;
30743;SDS011;17486;46.738;7.622;2023-05-10T02:38:58;2.65;;;0.80;;
30743;SDS011;17486;46.738;7.622;2023-05-10T02:41:26;1.05;;;0.50;;
30743;SDS011;17486;46.738;7.622;2023-05-10T02:43:55;1.95;;;0.40;;
30743;SDS011;17486;46.738;7.622;2023-05-10T02:46:24;1.67;;;0.40;;
30743;SDS011;17486;46.738;7.622;2023-05-10T02:48:49;1.23;;;0.32;;
30743;SDS011;17486;46.738;7.622;2023-05-10T02:51:15;2.13;;;0.40;;
30743;SDS011;17486;46.738;7.622;2023-05-10T02:53:43;5.25;;;0.60;;
30743;SDS011;17486;46.738;7.622;2023-05-10T02:56:14;2.65;;;0.75;;
30743;SDS011;17486;46.738;7.622;2023-05-10T02:58:44;1.15;;;0.70;;
30743;SDS011;17486;46.738;7.622;2023-05-10T03:01:10;2.45;;;0.80;;
30743;SDS011;17486;46.738;7.622;2023-05-10T03:03:36;1.65;;;0.60;;
30743;SDS011;17486;46.738;7.622;2023-05-10T03:06:01;2.40;;;0.70;;
30743;SDS011;17486;46.738;7.622;2023-05-10T03:08:26;1.05;;;0.40;;
30743;SDS011;17486;46.738;7.622;2023-05-10T03:10:55;1.50;;;0.68;;
30743;SDS011;17486;46.738;7.622;2023-05-10T03:13:29;1.83;;;0.70;;
30743;SDS011;17486;46.738;7.622;2023-05-10T03:16:15;1.33;;;0.80;;
30743;SDS011;17486;46.738;7.622;2023-05-10T03:19:22;3.45;;;0.73;;
30743;SDS011;17486;46.738;7.622;2023-05-10T03:21:49;2.40;;;0.70;;
30743;SDS011;17486;46.738;7.622;2023-05-10T03:24:18;0.80;;;0.60;;
30743;SDS011;17486;46.738;7.622;2023-05-10T03:26:46;1.15;;;0.50;;
30743;SDS011;17486;46.738;7.622;2023-05-10T03:29:13;0.57;;;0.30;;
30743;SDS011;17486;46.738;7.622;2023-05-10T03:31:40;0.70;;;0.70;;
30743;SDS011;17486;46.738;7.622;2023-05-10T03:34:06;1.48;;;0.82;;
30743;SDS011;17486;46.738;7.622;2023-05-10T03:36:32;0.55;;;0.55;;
30743;SDS011;17486;46.738;7.622;2023-05-10T03:38:57;0.77;;;0.60;;
30743;SDS011;17486;46.738;7.622;2023-05-10T03:41:22;1.05;;;0.80;;
30743;SDS011;17486;46.738;7.622;2023-05-10T03:43:48;2.15;;;0.75;;
30743;SDS011;17486;46.738;7.622;2023-05-10T03:46:13;1.35;;;0.80;;
30743;SDS011;17486;46.738;7.622;2023-05-10T03:48:39;1.75;;;0.60;;
30743;SDS011;17486;46.738;7.622;2023-05-10T03:51:04;1.90;;;0.75;;
30743;SDS011;17486;46.738;7.622;2023-05-10T03:53:30;1.00;;;0.88;;
30743;SDS011;17486;46.738;7.622;2023-05-10T03:55:55;1.45;;;0.63;;
30743;SDS011;17486;46.738;7.622;2023-05-10T03:58:20;1.23;;;0.82;;
30743;SDS011;17486;46.738;7.622;2023-05-10T04:00:46;1.70;;;0.88;;
30743;SDS011;17486;46.738;7.622;2023-05-10T04:03:12;1.50;;;0.70;;
30743;SDS011;17486;46.738;7.622;2023-05-10T04:05:37;1.67;;;0.70;;
30743;SDS011;17486;46.738;7.622;2023-05-10T04:08:03;2.13;;;0.70;;
30743;SDS011;17486;46.738;7.622;2023-05-10T04:10:29;1.92;;;0.68;;
30743;SDS011;17486;46.738;7.622;2023-05-10T04:12:54;1.23;;;0.98;;
30743;SDS011;17486;46.738;7.622;2023-05-10T04:15:20;1.90;;;0.95;;
30743;SDS011;17486;46.738;7.622;2023-05-10T04:17:45;3.42;;;1.00;;
30743;SDS011;17486;46.738;7.622;2023-05-10T04:20:11;1.52;;;0.82;;
30743;SDS011;17486;46.738;7.622;2023-05-10T04:22:37;3.50;;;1.00;;
30743;SDS011;17486;46.738;7.622;2023-05-10T04:25:02;2.35;;;1.02;;
30743;SDS011;17486;46.738;7.622;2023-05-10T04:27:29;1.15;;;0.73;;
30743;SDS011;17486;46.738;7.622;2023-05-10T04:29:54;2.65;;;0.93;;
30743;SDS011;17486;46.738;7.622;2023-05-10T04:32:19;1.48;;;0.77;;
30743;SDS011;17486;46.738;7.622;2023-05-10T04:34:45;2.85;;;1.05;;
30743;SDS011;17486;46.738;7.622;2023-05-10T04:37:11;2.55;;;1.08;;
30743;SDS011;17486;46.738;7.622;2023-05-10T04:39:36;3.22;;;0.90;;
30743;SDS011;17486;46.738;7.622;2023-05-10T04:42:05;1.98;;;0.88;;
30743;SDS011;17486;46.738;7.622;2023-05-10T04:44:31;1.98;;;0.80;;
30743;SDS011;17486;46.738;7.622;2023-05-10T04:47:00;1.75;;;0.68;;
30743;SDS011;17486;46.738;7.622;2023-05-10T04:49:27;2.42;;;0.65;;
30743;SDS011;17486;46.738;7.622;2023-05-10T04:51:52;1.08;;;0.60;;
30743;SDS011;17486;46.738;7.622;2023-05-10T04:54:18;1.33;;;0.70;;
30743;SDS011;17486;46.738;7.622;2023-05-10T04:56:43;0.80;;;0.57;;
30743;SDS011;17486;46.738;7.622;2023-05-10T04:59:08;1.83;;;1.23;;
30743;SDS011;17486;46.738;7.622;2023-05-10T05:01:34;1.10;;;0.70;;
30743;SDS011;17486;46.738;7.622;2023-05-10T05:03:59;1.95;;;0.70;;
30743;SDS011;17486;46.738;7.622;2023-05-10T05:06:25;2.15;;;0.60;;
30743;SDS011;17486;46.738;7.622;2023-05-10T05:08:52;0.70;;;0.57;;
30743;SDS011;17486;46.738;7.622;2023-05-10T05:11:17;1.95;;;0.50;;
30743;SDS011;17486;46.738;7.622;2023-05-10T05:13:43;1.13;;;0.50;;
30743;SDS011;17486;46.738;7.622;2023-05-10T05:16:08;1.23;;;0.50;;
30743;SDS011;17486;46.738;7.622;2023-05-10T05:18:34;0.85;;;0.68;;
30743;SDS011;17486;46.738;7.622;2023-05-10T05:20:59;3.40;;;0.85;;
30743;SDS011;17486;46.738;7.622;2023-05-10T05:23:25;0.63;;;0.60;;
30743;SDS011;17486;46.738;7.622;2023-05-10T05:25:51;1.60;;;0.63;;
30743;SDS011;17486;46.738;7.622;2023-05-10T05:28:17;3.70;;;0.70;;
30743;SDS011;17486;46.738;7.622;2023-05-10T05:30:43;0.80;;;0.80;;
30743;SDS011;17486;46.738;7.622;2023-05-10T05:33:08;3.60;;;0.77;;
30743;SDS011;17486;46.738;7.622;2023-05-10T05:35:34;1.45;;;0.80;;
30743;SDS011;17486;46.738;7.622;2023-05-10T05:37:59;2.30;;;0.88;;
30743;SDS011;17486;46.738;7.622;2023-05-10T05:40:24;0.63;;;0.63;;
30743;SDS011;17486;46.738;7.622;2023-05-10T05:42:50;4.68;;;0.73;;
30743;SDS011;17486;46.738;7.622;2023-05-10T05:45:15;1.33;;;0.75;;
30743;SDS011;17486;46.738;7.622;2023-05-10T05:47:41;1.60;;;0.63;;
30743;SDS011;17486;46.738;7.622;2023-05-10T05:50:06;0.88;;;0.60;;
30743;SDS011;17486;46.738;7.622;2023-05-10T05:52:32;1.08;;;0.75;;
30743;SDS011;17486;46.738;7.622;2023-05-10T05:54:57;1.30;;;0.85;;
30743;SDS011;17486;46.738;7.622;2023-05-10T05:57:22;1.23;;;0.80;;
30743;SDS011;17486;46.738;7.622;2023-05-10T05:59:48;0.77;;;0.77;;
30743;SDS011;17486;46.738;7.622;2023-05-10T06:02:13;2.90;;;0.90;;
30743;SDS011;17486;46.738;7.622;2023-05-10T06:04:39;2.05;;;1.10;;
30743;SDS011;17486;46.738;7.622;2023-05-10T06:07:04;3.00;;;1.60;;
30743;SDS011;17486;46.738;7.622;2023-05-10T06:09:30;5.68;;;1.80;;
30743;SDS011;17486;46.738;7.622;2023-05-10T06:11:55;3.05;;;1.85;;
30743;SDS011;17486;46.738;7.622;2023-05-10T06:14:21;3.10;;;1.98;;
30743;SDS011;17486;46.738;7.622;2023-05-10T06:16:47;3.13;;;1.75;;
30743;SDS011;17486;46.738;7.622;2023-05-10T06:19:12;2.95;;;1.75;;
30743;SDS011;17486;46.738;7.622;2023-05-10T06:21:37;2.72;;;1.30;;
30743;SDS011;17486;46.738;7.622;2023-05-10T06:24:03;2.97;;;1.27;;
30743;SDS011;17486;46.738;7.622;2023-05-10T06:26:29;1.75;;;1.45;;
30743;SDS011;17486;46.738;7.622;2023-05-10T06:28:54;1.50;;;1.23;;
30743;SDS011;17486;46.738;7.622;2023-05-10T06:31:20;2.88;;;1.15;;
30743;SDS011;17486;46.738;7.622;2023-05-10T06:33:45;1.98;;;1.10;;
30743;SDS011;17486;46.738;7.622;2023-05-10T06:36:11;5.03;;;1.73;;
30743;SDS011;17486;46.738;7.622;2023-05-10T06:38:36;1.60;;;1.40;;
30743;SDS011;17486;46.738;7.622;2023-05-10T06:41:02;2.80;;;2.00;;
30743;SDS011;17486;46.738;7.622;2023-05-10T06:43:28;4.38;;;1.80;;
30743;SDS011;17486;46.738;7.622;2023-05-10T06:45:53;4.07;;;1.52;;
30743;SDS011;17486;46.738;7.622;2023-05-10T06:48:19;2.05;;;1.85;;
30743;SDS011;17486;46.738;7.622;2023-05-10T06:50:44;3.03;;;1.98;;
30743;SDS011;17486;46.738;7.622;2023-05-10T06:53:10;2.80;;;2.60;;
30743;SDS011;17486;46.738;7.622;2023-05-10T06:55:36;4.07;;;3.67;;
30743;SDS011;17486;46.738;7.622;2023-05-10T06:58:02;2.60;;;1.92;;
30743;SDS011;17486;46.738;7.622;2023-05-10T07:00:27;3.00;;;1.50;;
30743;SDS011;17486;46.738;7.622;2023-05-10T07:02:52;1.58;;;1.25;;
30743;SDS011;17486;46.738;7.622;2023-05-10T07:05:18;0.95;;;0.85;;
30743;SDS011;17486;46.738;7.622;2023-05-10T07:07:43;1.90;;;1.10;;
30743;SDS011;17486;46.738;7.622;2023-05-10T07:10:09;2.10;;;0.90;;
30743;SDS011;17486;46.738;7.622;2023-05-10T07:12:34;1.00;;;0.90;;
30743;SDS011;17486;46.738;7.622;2023-05-10T07:15:00;0.70;;;0.52;;
30743;SDS011;17486;46.738;7.622;2023-05-10T07:17:25;0.65;;;0.60;;
30743;SDS011;17486;46.738;7.622;2023-05-10T07:19:51;0.85;;;0.40;;
30743;SDS011;17486;46.738;7.622;2023-05-10T07:22:16;0.95;;;0.73;;
30743;SDS011;17486;46.738;7.622;2023-05-10T07:24:42;4.05;;;0.77;;
30743;SDS011;17486;46.738;7.622;2023-05-10T07:27:07;2.45;;;0.77;;
30743;SDS011;17486;46.738;7.622;2023-05-10T07:29:33;1.73;;;0.90;;
30743;SDS011;17486;46.738;7.622;2023-05-10T07:31:59;2.08;;;0.73;;
30743;SDS011;17486;46.738;7.622;2023-05-10T07:34:25;1.88;;;0.82;;
30743;SDS011;17486;46.738;7.622;2023-05-10T07:36:50;5.07;;;0.85;;
30743;SDS011;17486;46.738;7.622;2023-05-10T07:39:16;1.80;;;0.75;;
30743;SDS011;17486;46.738;7.622;2023-05-10T07:41:41;1.58;;;1.00;;
30743;SDS011;17486;46.738;7.622;2023-05-10T07:44:07;1.70;;;0.93;;
30743;SDS011;17486;46.738;7.622;2023-05-10T07:46:32;1.83;;;0.70;;
30743;SDS011;17486;46.738;7.622;2023-05-10T07:48:58;2.47;;;0.80;;
30743;SDS011;17486;46.738;7.622;2023-05-10T07:51:23;2.63;;;0.57;;
30743;SDS011;17486;46.738;7.622;2023-05-10T07:53:49;2.00;;;0.85;;
30743;SDS011;17486;46.738;7.622;2023-05-10T07:58:45;1.35;;;0.75;;
30743;SDS011;17486;46.738;7.622;2023-05-10T08:01:11;1.13;;;0.80;;
30743;SDS011;17486;46.738;7.622;2023-05-10T08:03:36;2.22;;;1.30;;
30743;SDS011;17486;46.738;7.622;2023-05-10T08:06:01;2.65;;;1.30;;
30743;SDS011;17486;46.738;7.622;2023-05-10T08:08:27;1.50;;;1.10;;
30743;SDS011;17486;46.738;7.622;2023-05-10T08:10:52;2.88;;;1.33;;
30743;SDS011;17486;46.738;7.622;2023-05-10T08:13:18;2.03;;;1.35;;
30743;SDS011;17486;46.738;7.622;2023-05-10T08:15:43;3.58;;;1.38;;
30743;SDS011;17486;46.738;7.622;2023-05-10T08:18:08;1.63;;;1.08;;
30743;SDS011;17486;46.738;7.622;2023-05-10T08:20:34;1.55;;;0.98;;
30743;SDS011;17486;46.738;7.622;2023-05-10T08:22:59;1.10;;;1.00;;
30743;SDS011;17486;46.738;7.622;2023-05-10T08:25:24;2.22;;;1.10;;
30743;SDS011;17486;46.738;7.622;2023-05-10T08:27:50;2.15;;;0.95;;
30743;SDS011;17486;46.738;7.622;2023-05-10T08:30:16;1.50;;;1.00;;
30743;SDS011;17486;46.738;7.622;2023-05-10T08:32:41;3.00;;;1.00;;
30743;SDS011;17486;46.738;7.622;2023-05-10T08:35:06;1.65;;;1.00;;
30743;SDS011;17486;46.738;7.622;2023-05-10T08:37:32;2.25;;;1.20;;
30743;SDS011;17486;46.738;7.622;2023-05-10T08:39:58;1.58;;;0.73;;
30743;SDS011;17486;46.738;7.622;2023-05-10T08:42:23;1.48;;;1.13;;
30743;SDS011;17486;46.738;7.622;2023-05-10T08:44:53;2.35;;;1.15;;
30743;SDS011;17486;46.738;7.622;2023-05-10T08:47:20;1.73;;;1.10;;
30743;SDS011;17486;46.738;7.622;2023-05-10T08:49:47;2.05;;;1.02;;
30743;SDS011;17486;46.738;7.622;2023-05-10T08:52:15;2.80;;;1.48;;
30743;SDS011;17486;46.738;7.622;2023-05-10T08:54:42;2.72;;;1.20;;
30743;SDS011;17486;46.738;7.622;2023-05-10T08:57:08;1.60;;;1.00;;
30743;SDS011;17486;46.738;7.622;2023-05-10T08:59:35;2.40;;;1.25;;
30743;SDS011;17486;46.738;7.622;2023-05-10T09:02:03;2.50;;;1.17;;
30743;SDS011;17486;46.738;7.622;2023-05-10T09:04:30;4.32;;;1.50;;
30743;SDS011;17486;46.738;7.622;2023-05-10T09:06:56;1.63;;;1.02;;
30743;SDS011;17486;46.738;7.622;2023-05-10T09:09:21;3.35;;;1.23;;
30743;SDS011;17486;46.738;7.622;2023-05-10T09:11:49;2.75;;;1.15;;
30743;SDS011;17486;46.738;7.622;2023-05-10T09:14:15;2.88;;;1.40;;
30743;SDS011;17486;46.738;7.622;2023-05-10T09:16:41;3.00;;;0.88;;
30743;SDS011;17486;46.738;7.622;2023-05-10T09:19:07;2.85;;;1.08;;
30743;SDS011;17486;46.738;7.622;2023-05-10T09:21:34;1.10;;;1.00;;
30743;SDS011;17486;46.738;7.622;2023-05-10T09:24:03;2.35;;;0.90;;
30743;SDS011;17486;46.738;7.622;2023-05-10T09:26:30;1.63;;;0.80;;
30743;SDS011;17486;46.738;7.622;2023-05-10T09:28:56;1.88;;;0.80;;
30743;SDS011;17486;46.738;7.622;2023-05-10T09:31:25;0.65;;;0.50;;
30743;SDS011;17486;46.738;7.622;2023-05-10T09:34:08;4.45;;;0.85;;
30743;SDS011;17486;46.738;7.622;2023-05-10T09:36:34;1.83;;;0.50;;
30743;SDS011;17486;46.738;7.622;2023-05-10T09:38:59;2.70;;;0.80;;
30743;SDS011;17486;46.738;7.622;2023-05-10T09:41:25;1.00;;;0.60;;
30743;SDS011;17486;46.738;7.622;2023-05-10T09:43:50;1.60;;;0.80;;
30743;SDS011;17486;46.738;7.622;2023-05-10T09:46:21;2.45;;;0.70;;
30743;SDS011;17486;46.738;7.622;2023-05-10T09:48:47;1.23;;;0.70;;
30743;SDS011;17486;46.738;7.622;2023-05-10T09:51:20;0.75;;;0.50;;
30743;SDS011;17486;46.738;7.622;2023-05-10T09:53:46;1.55;;;0.60;;
30743;SDS011;17486;46.738;7.622;2023-05-10T09:56:12;0.70;;;0.43;;
30743;SDS011;17486;46.738;7.622;2023-05-10T09:58:37;0.80;;;0.50;;
30743;SDS011;17486;46.738;7.622;2023-05-10T10:01:03;1.00;;;0.50;;
30743;SDS011;17486;46.738;7.622;2023-05-10T10:03:28;1.70;;;0.70;;
30743;SDS011;17486;46.738;7.622;2023-05-10T10:05:55;1.48;;;0.80;;
30743;SDS011;17486;46.738;7.622;2023-05-10T10:08:20;1.80;;;0.50;;
30743;SDS011;17486;46.738;7.622;2023-05-10T10:10:46;1.17;;;0.85;;
30743;SDS011;17486;46.738;7.622;2023-05-10T10:13:12;1.77;;;0.60;;
30743;SDS011;17486;46.738;7.622;2023-05-10T10:15:38;1.88;;;0.80;;
30743;SDS011;17486;46.738;7.622;2023-05-10T10:18:04;0.80;;;0.70;;
30743;SDS011;17486;46.738;7.622;2023-05-10T10:20:30;0.80;;;0.60;;
30743;SDS011;17486;46.738;7.622;2023-05-10T10:22:56;2.25;;;0.65;;
30743;SDS011;17486;46.738;7.622;2023-05-10T10:25:21;1.45;;;0.57;;
30743;SDS011;17486;46.738;7.622;2023-05-10T10:36:05;0.93;;;0.50;;
30743;SDS011;17486;46.738;7.622;2023-05-10T10:38:37;0.40;;;0.40;;
30743;SDS011;17486;46.738;7.622;2023-05-10T10:41:31;2.35;;;0.70;;
30743;SDS011;17486;46.738;7.622;2023-05-10T10:47:00;1.15;;;0.70;;
30743;SDS011;17486;46.738;7.622;2023-05-10T11:02:47;0.80;;;0.50;;
30743;SDS011;17486;46.738;7.622;2023-05-10T11:08:00;1.98;;;0.60;;
30743;SDS011;17486;46.738;7.622;2023-05-10T11:10:32;0.30;;;0.30;;
30743;SDS011;17486;46.738;7.622;2023-05-10T11:13:02;0.47;;;0.32;;
30743;SDS011;17486;46.738;7.622;2023-05-10T11:15:34;0.52;;;0.40;;
30743;SDS011;17486;46.738;7.622;2023-05-10T11:18:20;1.35;;;0.70;;
30743;SDS011;17486;46.738;7.622;2023-05-10T11:20:51;1.17;;;0.57;;
30743;SDS011;17486;46.738;7.622;2023-05-10T11:26:08;0.98;;;0.47;;
30743;SDS011;17486;46.738;7.622;2023-05-10T11:28:40;0.82;;;0.45;;
30743;SDS011;17486;46.738;7.622;2023-05-10T11:31:09;1.23;;;0.60;;
30743;SDS011;17486;46.738;7.622;2023-05-10T11:33:46;1.58;;;0.47;;
30743;SDS011;17486;46.738;7.622;2023-05-10T11:36:34;0.50;;;0.47;;
30743;SDS011;17486;46.738;7.622;2023-05-10T11:39:01;1.58;;;0.80;;
30743;SDS011;17486;46.738;7.622;2023-05-10T11:41:28;0.85;;;0.50;;
30743;SDS011;17486;46.738;7.622;2023-05-10T11:43:55;1.42;;;0.90;;
30743;SDS011;17486;46.738;7.622;2023-05-10T11:46:21;0.88;;;0.50;;
30743;SDS011;17486;46.738;7.622;2023-05-10T11:48:49;1.95;;;0.60;;
30743;SDS011;17486;46.738;7.622;2023-05-10T11:51:19;0.55;;;0.50;;
30743;SDS011;17486;46.738;7.622;2023-05-10T11:53:45;1.02;;;0.90;;
30743;SDS011;17486;46.738;7.622;2023-05-10T11:56:10;3.13;;;0.88;;
30743;SDS011;17486;46.738;7.622;2023-05-10T11:58:36;1.10;;;0.70;;
30743;SDS011;17486;46.738;7.622;2023-05-10T12:01:03;0.95;;;0.50;;
30743;SDS011;17486;46.738;7.622;2023-05-10T12:03:30;1.58;;;0.57;;
30743;SDS011;17486;46.738;7.622;2023-05-10T12:05:56;0.90;;;0.57;;
30743;SDS011;17486;46.738;7.622;2023-05-10T12:08:25;2.35;;;0.55;;
30743;SDS011;17486;46.738;7.622;2023-05-10T12:11:08;0.60;;;0.60;;
30743;SDS011;17486;46.738;7.622;2023-05-10T12:13:38;0.68;;;0.65;;
30743;SDS011;17486;46.738;7.622;2023-05-10T12:16:28;2.55;;;0.80;;
30743;SDS011;17486;46.738;7.622;2023-05-10T12:18:56;1.73;;;0.70;;
30743;SDS011;17486;46.738;7.622;2023-05-10T12:21:23;3.28;;;1.10;;
30743;SDS011;17486;46.738;7.622;2023-05-10T12:23:52;1.58;;;0.82;;
30743;SDS011;17486;46.738;7.622;2023-05-10T12:26:25;2.80;;;0.85;;
30743;SDS011;17486;46.738;7.622;2023-05-10T12:29:01;3.70;;;0.93;;
30743;SDS011;17486;46.738;7.622;2023-05-10T12:31:51;2.55;;;1.13;;
30743;SDS011;17486;46.738;7.622;2023-05-10T12:34:30;1.25;;;0.55;;
30743;SDS011;17486;46.738;7.622;2023-05-10T12:36:56;1.83;;;0.82;;
30743;SDS011;17486;46.738;7.622;2023-05-10T12:39:23;0.93;;;0.57;;
30743;SDS011;17486;46.738;7.622;2023-05-10T12:41:48;1.30;;;0.80;;
30743;SDS011;17486;46.738;7.622;2023-05-10T12:44:14;1.52;;;0.70;;
30743;SDS011;17486;46.738;7.622;2023-05-10T12:46:39;0.60;;;0.60;;
30743;SDS011;17486;46.738;7.622;2023-05-10T12:49:05;3.00;;;1.20;;
30743;SDS011;17486;46.738;7.622;2023-05-10T12:51:30;1.48;;;0.70;;
30743;SDS011;17486;46.738;7.622;2023-05-10T12:53:56;0.98;;;0.80;;
30743;SDS011;17486;46.738;7.622;2023-05-10T12:56:21;1.83;;;0.75;;
30743;SDS011;17486;46.738;7.622;2023-05-10T12:58:47;0.88;;;0.50;;
30743;SDS011;17486;46.738;7.622;2023-05-10T13:01:13;0.95;;;0.70;;
30743;SDS011;17486;46.738;7.622;2023-05-10T13:03:39;2.30;;;0.80;;
30743;SDS011;17486;46.738;7.622;2023-05-10T13:06:04;3.72;;;0.85;;
30743;SDS011;17486;46.738;7.622;2023-05-10T13:08:31;1.50;;;0.80;;
30743;SDS011;17486;46.738;7.622;2023-05-10T13:10:58;2.05;;;0.73;;
30743;SDS011;17486;46.738;7.622;2023-05-10T13:13:24;1.15;;;0.65;;
30743;SDS011;17486;46.738;7.622;2023-05-10T13:15:50;1.80;;;0.75;;
30743;SDS011;17486;46.738;7.622;2023-05-10T13:18:15;1.40;;;0.80;;
30743;SDS011;17486;46.738;7.622;2023-05-10T13:20:40;1.08;;;0.63;;
30743;SDS011;17486;46.738;7.622;2023-05-10T13:23:08;3.45;;;0.90;;
30743;SDS011;17486;46.738;7.622;2023-05-10T13:25:33;1.58;;;0.98;;
30743;SDS011;17486;46.738;7.622;2023-05-10T13:27:59;1.80;;;0.88;;
30743;SDS011;17486;46.738;7.622;2023-05-10T13:30:24;2.75;;;1.30;;
30743;SDS011;17486;46.738;7.622;2023-05-10T13:32:50;2.08;;;1.23;;
30743;SDS011;17486;46.738;7.622;2023-05-10T13:35:15;3.40;;;1.05;;
30743;SDS011;17486;46.738;7.622;2023-05-10T13:37:40;3.60;;;1.00;;
30743;SDS011;17486;46.738;7.622;2023-05-10T13:40:06;3.10;;;0.90;;
30743;SDS011;17486;46.738;7.622;2023-05-10T13:42:32;1.42;;;0.80;;
30743;SDS011;17486;46.738;7.622;2023-05-10T13:44:58;4.85;;;2.63;;
30743;SDS011;17486;46.738;7.622;2023-05-10T13:47:26;8.73;;;3.83;;
30743;SDS011;17486;46.738;7.622;2023-05-10T13:49:51;4.78;;;2.60;;
30743;SDS011;17486;46.738;7.622;2023-05-10T13:52:16;4.53;;;1.58;;
30743;SDS011;17486;46.738;7.622;2023-05-10T13:54:42;4.03;;;1.10;;
30743;SDS011;17486;46.738;7.622;2023-05-10T13:57:07;2.58;;;1.00;;
30743;SDS011;17486;46.738;7.622;2023-05-10T13:59:33;2.75;;;0.85;;
30743;SDS011;17486;46.738;7.622;2023-05-10T14:01:58;1.83;;;0.93;;
30743;SDS011;17486;46.738;7.622;2023-05-10T14:04:24;2.55;;;1.00;;
30743;SDS011;17486;46.738;7.622;2023-05-10T14:06:50;2.50;;;0.93;;
30743;SDS011;17486;46.738;7.622;2023-05-10T14:09:16;2.97;;;1.10;;
30743;SDS011;17486;46.738;7.622;2023-05-10T14:11:41;1.20;;;0.75;;
30743;SDS011;17486;46.738;7.622;2023-05-10T14:14:08;2.10;;;0.73;;
30743;SDS011;17486;46.738;7.622;2023-05-10T14:16:34;2.85;;;1.00;;
30743;SDS011;17486;46.738;7.622;2023-05-10T14:18:59;2.22;;;0.70;;
30743;SDS011;17486;46.738;7.622;2023-05-10T14:21:25;2.65;;;0.93;;
30743;SDS011;17486;46.738;7.622;2023-05-10T14:23:50;1.33;;;0.70;;
30743;SDS011;17486;46.738;7.622;2023-05-10T14:26:15;0.68;;;0.60;;
30743;SDS011;17486;46.738;7.622;2023-05-10T14:28:41;2.33;;;0.90;;
30743;SDS011;17486;46.738;7.622;2023-05-10T14:31:06;3.95;;;1.45;;
30743;SDS011;17486;46.738;7.622;2023-05-10T14:33:32;2.55;;;0.90;;
30743;SDS011;17486;46.738;7.622;2023-05-10T14:35:57;1.05;;;0.85;;
30743;SDS011;17486;46.738;7.622;2023-05-10T14:38:22;1.73;;;0.82;;
30743;SDS011;17486;46.738;7.622;2023-05-10T14:40:48;1.65;;;0.65;;
30743;SDS011;17486;46.738;7.622;2023-05-10T14:43:14;2.17;;;0.80;;
30743;SDS011;17486;46.738;7.622;2023-05-10T14:45:39;1.80;;;1.00;;
30743;SDS011;17486;46.738;7.622;2023-05-10T14:48:05;2.13;;;1.10;;
30743;SDS011;17486;46.738;7.622;2023-05-10T14:50:30;3.13;;;0.90;;
30743;SDS011;17486;46.738;7.622;2023-05-10T14:52:57;1.48;;;0.65;;
30743;SDS011;17486;46.738;7.622;2023-05-10T14:55:22;1.45;;;0.70;;
30743;SDS011;17486;46.738;7.622;2023-05-10T14:57:48;1.83;;;0.70;;
30743;SDS011;17486;46.738;7.622;2023-05-10T15:00:15;4.13;;;0.85;;
30743;SDS011;17486;46.738;7.622;2023-05-10T15:02:41;1.33;;;0.80;;
30743;SDS011;17486;46.738;7.622;2023-05-10T15:05:06;1.85;;;0.80;;
30743;SDS011;17486;46.738;7.622;2023-05-10T15:07:32;2.45;;;0.80;;
30743;SDS011;17486;46.738;7.622;2023-05-10T15:09:57;2.33;;;1.10;;
30743;SDS011;17486;46.738;7.622;2023-05-10T15:12:23;1.48;;;0.50;;
30743;SDS011;17486;46.738;7.622;2023-05-10T15:14:48;1.42;;;0.57;;
30743;SDS011;17486;46.738;7.622;2023-05-10T15:17:14;2.50;;;0.85;;
30743;SDS011;17486;46.738;7.622;2023-05-10T15:19:39;0.90;;;0.70;;
30743;SDS011;17486;46.738;7.622;2023-05-10T15:22:04;2.88;;;0.90;;
30743;SDS011;17486;46.738;7.622;2023-05-10T15:24:30;2.63;;;0.63;;
30743;SDS011;17486;46.738;7.622;2023-05-10T15:26:58;2.50;;;0.70;;
30743;SDS011;17486;46.738;7.622;2023-05-10T15:29:24;2.75;;;0.98;;
30743;SDS011;17486;46.738;7.622;2023-05-10T15:31:49;1.08;;;0.90;;
30743;SDS011;17486;46.738;7.622;2023-05-10T15:34:16;2.00;;;0.77;;
30743;SDS011;17486;46.738;7.622;2023-05-10T15:36:42;1.20;;;0.80;;
30743;SDS011;17486;46.738;7.622;2023-05-10T15:39:08;1.85;;;0.70;;